createdAt,value
2017-05-15T00:02:22.050Z,11.23
2017-05-15T00:04:49.693Z,10.83
2017-05-15T00:07:16.615Z,10.65
2017-05-15T00:09:43.542Z,11.22
2017-05-15T00:12:10.442Z,11.07
2017-05-15T00:14:38.090Z,10.93
2017-05-15T00:17:05.765Z,11.12
2017-05-15T00:19:33.422Z,12.23
2017-05-15T00:22:01.071Z,13.08
2017-05-15T00:24:28.298Z,11.37
2017-05-15T00:26:55.300Z,11.20
2017-05-15T00:29:22.205Z,12.20
2017-05-15T00:31:49.125Z,12.23
2017-05-15T00:34:16.029Z,12.20
2017-05-15T00:36:42.957Z,11.48
2017-05-15T00:39:10.633Z,12.08
2017-05-15T00:41:37.558Z,12.62
2017-05-15T00:44:05.209Z,12.15
2017-05-15T00:46:32.131Z,12.25
2017-05-15T00:48:59.050Z,13.95
2017-05-15T00:51:25.945Z,13.38
2017-05-15T00:53:53.605Z,12.67
2017-05-15T00:56:21.270Z,13.75
2017-05-15T00:58:48.942Z,15.78
2017-05-15T01:01:16.131Z,14.67
2017-05-15T01:03:43.026Z,12.53
2017-05-15T01:06:10.674Z,12.67
2017-05-15T01:08:37.902Z,12.33
2017-05-15T01:11:04.902Z,12.05
2017-05-15T01:13:31.815Z,12.55
2017-05-15T01:15:58.771Z,13.98
2017-05-15T01:18:26.434Z,13.22
2017-05-15T01:20:54.093Z,13.07
2017-05-15T01:23:21.725Z,11.85
2017-05-15T01:25:48.647Z,13.87
2017-05-15T01:28:15.549Z,13.77
2017-05-15T01:30:42.470Z,13.87
2017-05-15T01:33:09.386Z,13.10
2017-05-15T01:35:36.332Z,12.55
2017-05-15T01:38:03.256Z,12.92
2017-05-15T01:40:30.629Z,13.55
2017-05-15T01:42:57.581Z,13.93
2017-05-15T01:45:24.550Z,12.93
2017-05-15T01:47:51.773Z,12.92
2017-05-15T01:50:18.725Z,13.23
2017-05-15T01:52:45.726Z,14.80
2017-05-15T01:55:13.426Z,14.73
2017-05-15T01:57:40.371Z,15.40
2017-05-15T02:00:07.307Z,14.80
2017-05-15T02:02:34.238Z,13.75
2017-05-15T02:05:01.196Z,14.22
2017-05-15T02:07:28.150Z,14.30
2017-05-15T02:09:55.110Z,14.10
2017-05-15T02:12:22.065Z,13.30
2017-05-15T02:14:49.753Z,13.18
2017-05-15T02:17:16.970Z,14.10
2017-05-15T02:19:43.923Z,13.60
2017-05-15T02:22:11.612Z,13.30
2017-05-15T02:24:38.566Z,13.60
2017-05-15T02:27:05.541Z,13.02
2017-05-15T02:29:32.491Z,13.97
2017-05-15T02:31:59.449Z,13.50
2017-05-15T02:34:26.406Z,12.95
2017-05-15T02:36:53.374Z,12.70
2017-05-15T02:39:20.329Z,12.22
2017-05-15T02:41:47.275Z,12.00
2017-05-15T02:44:14.209Z,12.08
2017-05-15T02:46:41.406Z,11.50
2017-05-15T02:49:08.388Z,11.53
2017-05-15T02:51:36.085Z,11.52
2017-05-15T02:54:03.029Z,11.90
2017-05-15T02:56:29.995Z,11.43
2017-05-15T02:58:56.936Z,11.63
2017-05-15T03:01:23.879Z,11.35
2017-05-15T03:03:50.826Z,10.75
2017-05-15T03:06:17.794Z,11.10
2017-05-15T03:08:44.759Z,10.95
2017-05-15T03:11:12.415Z,10.92
2017-05-15T03:13:40.149Z,11.20
2017-05-15T03:16:07.102Z,10.58
2017-05-15T03:18:34.051Z,10.58
2017-05-15T03:21:00.989Z,10.57
2017-05-15T03:23:27.942Z,10.42
2017-05-15T03:25:54.878Z,10.30
2017-05-15T03:28:21.806Z,10.22
2017-05-15T03:30:48.774Z,11.18
2017-05-15T03:33:15.737Z,10.97
2017-05-15T03:35:42.693Z,12.90
2017-05-15T03:38:09.649Z,14.87
2017-05-15T03:40:36.570Z,10.80
2017-05-15T03:43:04.277Z,10.08
2017-05-15T03:45:31.622Z,9.60
2017-05-15T03:47:58.559Z,9.43
2017-05-15T03:50:25.529Z,9.00
2017-05-15T03:52:52.788Z,9.50
2017-05-15T03:55:19.769Z,9.82
2017-05-15T03:57:47.453Z,10.17
2017-05-15T04:00:14.455Z,10.50
2017-05-15T04:02:41.403Z,10.47
2017-05-15T04:05:08.341Z,9.42
2017-05-15T04:07:35.326Z,8.90
2017-05-15T04:10:02.322Z,10.08
2017-05-15T04:12:29.265Z,10.35
2017-05-15T04:14:56.339Z,8.43
2017-05-15T04:17:24.011Z,7.63
2017-05-15T04:19:51.713Z,7.68
2017-05-15T04:22:18.669Z,6.97
2017-05-15T04:24:45.618Z,6.37
2017-05-15T04:27:12.598Z,6.00
2017-05-15T04:29:40.300Z,5.80
2017-05-15T04:32:07.274Z,5.60
2017-05-15T04:34:34.217Z,6.12
2017-05-15T04:37:01.183Z,5.05
2017-05-15T04:39:28.116Z,6.98
2017-05-15T04:41:55.267Z,4.28
2017-05-15T04:44:22.266Z,13.88
2017-05-15T04:46:49.262Z,4.58
2017-05-15T04:49:16.247Z,4.88
2017-05-15T04:51:43.589Z,4.48
2017-05-15T04:54:10.580Z,5.42
2017-05-15T04:56:37.618Z,5.55
2017-05-15T04:59:04.727Z,4.48
2017-05-15T05:01:31.763Z,4.30
2017-05-15T05:03:58.961Z,4.20
2017-05-15T05:06:26.370Z,4.12
2017-05-15T05:08:54.385Z,4.18
2017-05-15T05:11:21.530Z,4.17
2017-05-15T05:13:48.823Z,2.70
2017-05-15T05:16:16.202Z,3.10
2017-05-15T05:18:43.532Z,3.53
2017-05-15T05:21:20.803Z,2.90
2017-05-15T05:24:19.030Z,2.73
2017-05-15T05:27:38.556Z,2.87
2017-05-15T05:30:22.683Z,3.30
2017-05-15T05:32:58.930Z,3.10
2017-05-15T05:36:00.533Z,3.40
2017-05-15T05:39:10.119Z,3.25
2017-05-15T05:55:15.728Z,2.80
2017-05-15T05:57:42.990Z,3.17
2017-05-15T06:00:23.189Z,3.05
2017-05-15T06:03:14.379Z,3.02
2017-05-15T06:05:53.693Z,3.30
2017-05-15T06:08:33.173Z,3.97
2017-05-15T06:11:12.549Z,3.62
2017-05-15T06:13:51.965Z,3.80
2017-05-15T06:19:14.228Z,3.88
2017-05-15T06:36:12.882Z,4.52
2017-05-15T06:38:52.134Z,5.12
2017-05-15T06:41:31.254Z,4.80
2017-05-15T06:43:58.115Z,5.55
2017-05-15T06:46:25.057Z,5.80
2017-05-15T06:48:51.997Z,5.20
2017-05-15T06:51:18.965Z,5.95
2017-05-15T06:53:46.676Z,5.80
2017-05-15T06:56:14.096Z,6.35
2017-05-15T06:58:41.048Z,7.17
2017-05-15T07:01:09.340Z,8.15
2017-05-15T07:03:36.602Z,8.60
2017-05-15T07:06:03.665Z,8.16
2017-05-15T07:08:31.116Z,8.50
2017-05-15T07:10:58.463Z,9.40
2017-05-15T07:13:29.133Z,8.82
2017-05-15T07:15:56.432Z,10.20
2017-05-15T07:18:28.040Z,9.00
2017-05-15T07:20:55.718Z,9.62
2017-05-15T07:23:30.623Z,10.28
2017-05-15T07:25:58.128Z,9.50
2017-05-15T07:28:30.058Z,11.78
2017-05-15T07:30:59.304Z,8.78
2017-05-15T07:33:26.603Z,9.25
2017-05-15T07:36:03.896Z,9.62
2017-05-15T07:38:34.379Z,9.88
2017-05-15T07:41:02.462Z,9.78
2017-05-15T07:43:29.810Z,9.68
2017-05-15T07:45:59.133Z,10.54
2017-05-15T07:48:31.174Z,10.82
2017-05-15T07:50:59.021Z,10.80
2017-05-15T07:53:26.967Z,12.05
2017-05-15T07:55:54.839Z,11.40
2017-05-15T07:58:22.355Z,11.85
2017-05-15T08:00:49.646Z,12.28
2017-05-15T08:03:16.948Z,12.87
2017-05-15T08:05:44.246Z,15.25
2017-05-15T08:08:11.541Z,15.20
2017-05-15T08:10:38.793Z,14.45
2017-05-15T08:13:06.015Z,13.87
2017-05-15T08:15:33.045Z,13.88
2017-05-15T08:18:00.045Z,15.24
2017-05-15T08:20:27.019Z,16.35
2017-05-15T08:22:54.012Z,15.48
2017-05-15T08:25:21.004Z,15.13
2017-05-15T08:27:48.731Z,16.97
2017-05-15T08:30:15.795Z,17.10
2017-05-15T08:32:43.080Z,15.32
2017-05-15T08:35:10.773Z,14.23
2017-05-15T08:37:37.752Z,14.03
2017-05-15T08:40:04.759Z,14.83
2017-05-15T08:42:31.793Z,15.48
2017-05-15T08:44:58.811Z,14.70
2017-05-15T08:47:25.774Z,15.42
2017-05-15T08:49:52.698Z,14.28
2017-05-15T08:52:20.410Z,12.55
2017-05-15T08:54:48.065Z,14.45
2017-05-15T08:57:15.177Z,14.87
2017-05-15T08:59:42.901Z,14.40
2017-05-15T09:02:10.520Z,13.47
2017-05-15T09:04:38.366Z,13.37
2017-05-15T09:07:05.554Z,13.37
2017-05-15T09:09:33.510Z,12.28
2017-05-15T09:12:00.593Z,12.80
2017-05-15T09:14:28.733Z,12.08
2017-05-15T09:16:56.724Z,14.52
2017-05-15T09:19:24.779Z,12.00
2017-05-15T09:21:51.983Z,12.52
2017-05-15T09:24:19.483Z,11.58
2017-05-15T09:26:46.705Z,12.40
2017-05-15T09:29:13.787Z,12.27
2017-05-15T09:31:41.366Z,12.75
2017-05-15T09:34:08.520Z,13.55
2017-05-15T09:36:35.755Z,12.50
2017-05-15T09:39:02.920Z,13.10
2017-05-15T09:41:31.290Z,13.60
2017-05-15T09:44:00.767Z,13.20
2017-05-15T09:46:34.235Z,12.38
2017-05-15T09:49:01.627Z,13.06
2017-05-15T09:51:29.062Z,13.10
2017-05-15T09:54:01.534Z,13.98
2017-05-15T09:56:28.791Z,14.18
2017-05-15T09:59:07.583Z,15.27
2017-05-15T10:01:35.316Z,17.30
2017-05-15T10:06:35.419Z,18.48
2017-05-15T10:09:03.617Z,19.60
2017-05-15T10:11:30.810Z,19.75
2017-05-15T10:13:58.857Z,19.67
2017-05-15T10:16:28.520Z,20.58
2017-05-15T10:18:56.760Z,21.62
2017-05-15T10:21:24.138Z,21.58
2017-05-15T10:23:51.325Z,21.90
2017-05-15T10:26:18.915Z,21.85
2017-05-15T10:28:46.689Z,22.82
2017-05-15T10:31:14.502Z,21.88
2017-05-15T10:33:42.291Z,22.12
2017-05-15T10:36:10.923Z,20.74
2017-05-15T10:38:38.140Z,20.58
2017-05-15T10:41:05.937Z,21.72
2017-05-15T10:43:33.015Z,18.50
2017-05-15T10:46:01.349Z,18.52
2017-05-15T10:48:29.240Z,18.78
2017-05-15T10:50:56.396Z,17.40
2017-05-15T10:53:23.555Z,17.58
2017-05-15T10:55:50.588Z,17.58
2017-05-15T10:58:17.617Z,15.82
2017-05-15T11:00:44.626Z,14.82
2017-05-15T11:03:11.637Z,15.32
2017-05-15T11:05:38.653Z,15.72
2017-05-15T11:08:05.689Z,15.60
2017-05-15T11:10:33.498Z,14.58
2017-05-15T11:13:00.638Z,13.82
2017-05-15T11:15:28.553Z,14.70
2017-05-15T11:17:55.680Z,14.38
2017-05-15T11:20:22.824Z,15.22
2017-05-15T11:22:50.870Z,15.77
2017-05-15T14:12:57.756Z,12.82
2017-05-15T14:18:22.319Z,13.82
2017-05-15T14:20:50.319Z,13.92
2017-05-15T14:23:18.075Z,14.70
2017-05-15T14:25:45.680Z,14.67
2017-05-15T14:28:14.123Z,13.63
2017-05-15T14:30:42.567Z,13.95
2017-05-15T14:33:10.242Z,14.77
2017-05-15T14:35:37.526Z,16.12
2017-05-15T14:38:05.771Z,17.10
2017-05-15T14:40:33.100Z,16.78
2017-05-15T14:43:00.400Z,16.10
2017-05-15T14:45:28.885Z,15.90
2017-05-15T14:47:56.955Z,15.72
2017-05-15T14:50:25.176Z,14.33
2017-05-15T14:52:52.543Z,14.13
2017-05-15T14:55:19.886Z,12.15
2017-05-15T14:57:47.600Z,10.23
2017-05-15T15:00:16.214Z,18.50
2017-05-15T15:02:43.107Z,23.70
2017-05-15T15:05:11.254Z,13.82
2017-05-15T15:07:38.705Z,16.60
2017-05-15T15:10:06.206Z,13.14
2017-05-15T15:12:34.304Z,12.76
2017-05-15T15:15:02.182Z,12.70
2017-05-15T15:17:31.266Z,13.43
2017-05-15T15:19:59.387Z,12.60
2017-05-15T15:22:29.361Z,12.98
2017-05-15T15:24:57.600Z,11.44
2017-05-15T15:27:27.148Z,12.85
2017-05-15T15:29:55.658Z,11.84
2017-05-15T15:32:24.246Z,13.30
2017-05-15T15:34:52.392Z,13.17
2017-05-15T15:37:21.876Z,12.75
2017-05-15T15:42:40.053Z,12.17
2017-05-15T15:45:16.266Z,11.13
2017-05-15T15:47:56.603Z,11.20
2017-05-15T15:50:34.437Z,9.98
2017-05-15T15:55:59.177Z,10.80
2017-05-15T15:58:27.902Z,11.38
2017-05-15T16:00:57.929Z,10.18
2017-05-15T16:05:58.456Z,9.07
2017-05-15T16:08:27.411Z,8.80
2017-05-15T16:10:56.248Z,9.32
2017-05-15T16:13:25.643Z,8.85
2017-05-15T16:15:54.203Z,8.90
2017-05-15T16:18:23.003Z,7.75
2017-05-15T16:20:51.248Z,8.15
2017-05-15T16:23:19.416Z,8.27
2017-05-15T16:25:50.495Z,8.25
2017-05-15T16:28:20.074Z,8.90
2017-05-15T16:30:48.975Z,7.50
2017-05-15T16:33:17.465Z,7.90
2017-05-15T16:35:45.690Z,8.20
2017-05-15T16:38:13.006Z,7.68
2017-05-15T16:40:40.312Z,7.80
2017-05-15T16:43:08.685Z,8.10
2017-05-15T16:45:36.817Z,8.57
2017-05-15T16:48:04.669Z,7.92
2017-05-15T16:50:33.543Z,8.67
2017-05-15T16:53:02.262Z,8.25
2017-05-15T16:55:29.461Z,8.73
2017-05-15T16:57:56.553Z,8.80
2017-05-15T17:00:23.599Z,8.78
2017-05-15T17:02:50.886Z,8.55
2017-05-15T17:05:17.891Z,9.38
2017-05-15T17:07:44.880Z,8.66
2017-05-15T17:10:12.645Z,8.73
2017-05-15T17:12:40.389Z,8.68
2017-05-15T17:15:07.369Z,9.45
2017-05-15T17:17:36.375Z,9.32
2017-05-15T17:20:03.538Z,9.97
2017-05-15T17:22:30.612Z,9.47
2017-05-15T17:24:58.531Z,9.70
2017-05-15T17:27:25.867Z,10.32
2017-05-15T17:29:53.096Z,10.32
2017-05-15T17:32:20.904Z,10.48
2017-05-15T17:34:47.921Z,9.68
2017-05-15T17:37:14.899Z,9.50
2017-05-15T17:39:42.682Z,9.93
2017-05-15T17:42:11.485Z,9.90
2017-05-15T17:44:39.397Z,9.67
2017-05-15T17:47:07.325Z,9.62
2017-05-15T17:49:37.419Z,10.55
2017-05-15T17:52:05.378Z,11.27
2017-05-15T17:54:32.440Z,10.25
2017-05-15T17:57:00.047Z,10.20
2017-05-15T17:59:27.229Z,10.38
2017-05-15T18:01:54.805Z,10.52
2017-05-15T18:04:21.887Z,10.53
2017-05-15T18:06:48.930Z,11.20
2017-05-15T18:09:17.952Z,11.65
2017-05-15T18:11:45.036Z,10.90
2017-05-15T18:14:12.523Z,11.27
2017-05-15T18:16:40.918Z,11.43
2017-05-15T18:19:09.162Z,11.37
2017-05-15T18:21:36.268Z,11.82
2017-05-15T18:24:03.621Z,11.88
2017-05-15T18:26:31.171Z,11.97
2017-05-15T18:28:58.159Z,11.75
2017-05-15T18:31:25.184Z,12.15
2017-05-15T18:33:52.378Z,13.58
2017-05-15T18:36:19.526Z,13.10
2017-05-15T18:38:46.618Z,12.67
2017-05-15T18:41:13.678Z,12.57
2017-05-15T18:43:40.679Z,12.50
2017-05-15T18:46:08.095Z,13.25
2017-05-15T18:48:35.301Z,12.95
2017-05-15T18:51:03.357Z,12.35
2017-05-15T18:53:31.237Z,13.35
2017-05-15T18:55:58.553Z,13.02
2017-05-15T18:58:25.920Z,13.53
2017-05-15T19:00:53.703Z,13.55
2017-05-15T19:03:21.047Z,13.65
2017-05-15T19:05:49.553Z,13.92
2017-05-15T19:08:17.271Z,14.02
2017-05-15T19:10:50.347Z,14.57
2017-05-15T19:13:18.614Z,14.87
2017-05-15T19:15:45.931Z,14.43
2017-05-15T19:18:13.240Z,14.93
2017-05-15T19:20:40.548Z,14.22
2017-05-15T19:23:07.701Z,14.10
2017-05-15T19:25:34.949Z,15.60
2017-05-15T19:28:02.083Z,15.72
2017-05-15T19:30:29.865Z,15.65
2017-05-15T19:32:56.829Z,15.10
2017-05-15T19:35:24.493Z,15.33
2017-05-15T19:37:51.719Z,14.16
2017-05-15T19:40:19.754Z,13.68
2017-05-15T19:42:47.643Z,13.50
2017-05-15T19:45:15.576Z,13.72
2017-05-15T19:47:43.224Z,13.80
2017-05-15T19:50:11.015Z,13.28
2017-05-15T19:52:38.072Z,12.28
2017-05-15T19:55:05.182Z,12.83
2017-05-15T19:57:32.201Z,12.86
2017-05-15T19:59:59.258Z,13.13
2017-05-15T20:02:26.252Z,13.97
2017-05-15T20:04:54.070Z,13.00
2017-05-15T20:07:21.427Z,13.33
2017-05-15T20:09:48.507Z,12.85
2017-05-15T20:12:16.832Z,13.08
2017-05-15T20:14:44.088Z,12.35
2017-05-15T20:17:11.146Z,11.38
2017-05-15T20:19:38.932Z,11.40
2017-05-15T20:22:06.641Z,11.45
2017-05-15T20:24:33.684Z,11.14
2017-05-15T20:27:01.604Z,11.02
2017-05-15T20:29:28.941Z,10.60
2017-05-15T20:31:57.466Z,11.72
2017-05-15T20:34:24.483Z,10.63
2017-05-15T20:36:51.639Z,11.50
2017-05-15T20:39:18.666Z,10.28
2017-05-15T20:41:46.438Z,9.98
2017-05-15T20:44:14.162Z,10.27
2017-05-15T20:46:41.134Z,9.62
2017-05-15T20:49:08.090Z,10.33
2017-05-15T20:51:35.255Z,9.77
2017-05-15T20:54:02.304Z,10.15
2017-05-15T20:56:29.405Z,9.92
2017-05-15T20:58:56.407Z,10.00
2017-05-15T21:01:23.724Z,10.13
2017-05-15T21:03:50.813Z,10.77
2017-05-15T21:06:18.110Z,10.50
2017-05-15T21:08:45.102Z,9.32
2017-05-15T21:11:12.137Z,8.60
2017-05-15T21:13:39.179Z,8.47
2017-05-15T21:16:06.171Z,8.98
2017-05-15T21:18:33.261Z,10.17
2017-05-15T21:21:00.849Z,8.62
2017-05-15T21:23:28.813Z,8.57
2017-05-15T21:25:55.768Z,9.10
2017-05-15T21:28:23.474Z,8.65
2017-05-15T21:30:50.594Z,8.50
2017-05-15T21:33:18.325Z,8.33
2017-05-15T21:35:45.858Z,8.70
2017-05-15T21:38:14.322Z,9.20
2017-05-15T21:40:41.680Z,9.53
2017-05-15T21:43:09.020Z,8.72
2017-05-15T21:45:36.098Z,9.80
2017-05-15T21:48:03.171Z,10.40
2017-05-15T21:50:30.544Z,10.10
2017-05-15T21:52:57.660Z,9.60
2017-05-15T21:55:24.781Z,9.23
2017-05-15T21:57:52.146Z,9.00
2017-05-15T22:00:19.230Z,9.05
2017-05-15T22:02:46.333Z,8.97
2017-05-15T22:05:13.429Z,10.03
2017-05-15T22:07:41.051Z,10.30
2017-05-15T22:10:08.124Z,10.97
2017-05-15T22:12:35.149Z,11.03
2017-05-15T22:15:03.012Z,11.38
2017-05-15T22:17:30.059Z,11.77
2017-05-15T22:19:57.129Z,11.45
2017-05-15T22:22:24.672Z,12.44
2017-05-15T22:24:51.752Z,12.17
2017-05-15T22:27:19.127Z,13.08
2017-05-15T22:29:46.159Z,12.73
2017-05-15T22:32:14.005Z,12.74
2017-05-15T22:34:41.487Z,13.08
2017-05-15T22:37:09.292Z,13.05
2017-05-15T22:39:36.400Z,13.22
2017-05-15T22:42:04.305Z,14.03
2017-05-15T22:44:31.320Z,14.22
2017-05-15T22:46:58.364Z,15.57
2017-05-15T22:49:26.831Z,15.57
2017-05-15T22:51:54.799Z,14.95
2017-05-15T22:54:22.558Z,15.10
2017-05-15T22:56:50.375Z,15.77
2017-05-15T22:59:17.383Z,15.83
2017-05-15T23:01:45.135Z,16.68
2017-05-15T23:04:14.171Z,16.15
2017-05-15T23:06:41.281Z,15.63
2017-05-15T23:09:09.227Z,16.62
2017-05-15T23:11:36.242Z,16.17
2017-05-15T23:14:03.335Z,15.92
2017-05-15T23:16:30.347Z,15.93
2017-05-15T23:18:57.403Z,15.53
2017-05-15T23:21:24.547Z,15.98
2017-05-15T23:23:51.672Z,16.20
2017-05-15T23:26:18.649Z,16.23
2017-05-15T23:28:45.649Z,16.50
2017-05-15T23:31:12.667Z,16.13
2017-05-15T23:33:40.117Z,16.13
2017-05-15T23:36:07.204Z,16.07
2017-05-15T23:38:34.201Z,15.68
2017-05-15T23:41:01.220Z,16.97
2017-05-15T23:43:28.214Z,16.58
2017-05-15T23:45:55.911Z,16.30
2017-05-15T23:48:22.922Z,16.15
2017-05-15T23:50:50.676Z,16.58
2017-05-15T23:53:18.413Z,16.82
2017-05-15T23:55:45.793Z,16.00
2017-05-15T23:58:12.878Z,15.35
